TimeMDT,TemperatureF,Dew PointF,Humidity,Sea Level PressureIn,VisibilityMPH,Wind Direction,Wind SpeedMPH,Gust SpeedMPH,PrecipitationIn,Events,Conditions,WindDirDegrees,DateUTC
12:15 AM,37.9,33.4,84,30.25,10.0,SE,8.1,-,N/A,,Clear,140,2013-10-25 06:15:00
12:35 AM,35.2,31.8,87,30.24,10.0,East,3.5,-,N/A,,Clear,100,2013-10-25 06:35:00
12:55 AM,33.6,32.0,94,30.24,10.0,East,3.5,-,N/A,,Clear,90,2013-10-25 06:55:00
1:15 AM,35.2,32.2,89,30.24,10.0,SE,5.8,-,N/A,,Clear,140,2013-10-25 07:15:00
1:35 AM,35.1,32.4,90,30.24,10.0,South,5.8,-,N/A,,Clear,170,2013-10-25 07:35:00
1:55 AM,34.9,32.4,91,30.24,10.0,SSW,3.5,-,N/A,,Clear,200,2013-10-25 07:55:00
2:15 AM,34.3,32.0,91,30.24,10.0,Calm,Calm,-,N/A,,Clear,0,2013-10-25 08:15:00
2:35 AM,34.2,31.8,91,30.24,10.0,Calm,Calm,-,N/A,,Clear,0,2013-10-25 08:35:00
2:55 AM,34.0,32.4,94,30.23,10.0,WSW,4.6,-,N/A,,Clear,250,2013-10-25 08:55:00
3:15 AM,36.5,33.1,87,30.23,10.0,WSW,4.6,-,N/A,,Clear,250,2013-10-25 09:15:00
3:35 AM,35.4,32.2,88,30.23,10.0,WSW,3.5,-,N/A,,Clear,240,2013-10-25 09:35:00
3:55 AM,32.9,31.3,94,30.22,10.0,Calm,Calm,-,N/A,,Clear,0,2013-10-25 09:55:00
4:15 AM,34.0,32.4,94,30.22,10.0,Calm,Calm,-,N/A,,Clear,0,2013-10-25 10:15:00
4:35 AM,33.3,31.8,94,30.22,10.0,SSE,3.5,-,N/A,,Clear,150,2013-10-25 10:35:00
4:55 AM,33.6,31.6,92,30.22,10.0,South,3.5,-,N/A,,Clear,180,2013-10-25 10:55:00
5:35 AM,31.8,30.4,94,30.21,7.0,WSW,3.5,-,N/A,,Clear,250,2013-10-25 11:35:00
5:55 AM,32.4,31.6,97,30.21,10.0,WSW,3.5,-,N/A,,Clear,250,2013-10-25 11:55:00
6:15 AM,31.5,30.0,94,30.21,10.0,Calm,Calm,-,N/A,,Clear,0,2013-10-25 12:15:00
6:35 AM,30.2,28.9,95,30.20,7.0,WSW,4.6,-,N/A,,Clear,250,2013-10-25 12:35:00
6:55 AM,30.9,30.0,96,30.19,5.0,West,3.5,-,N/A,,Clear,280,2013-10-25 12:55:00
7:15 AM,29.8,29.1,97,30.19,2.5,West,3.5,-,N/A,,Clear,280,2013-10-25 13:15:00
7:35 AM,29.1,28.4,97,30.19,3.0,West,4.6,-,N/A,,Clear,270,2013-10-25 13:35:00
7:55 AM,28.9,28.4,98,30.19,0.2,West,8.1,-,N/A,Fog,Light Freezing Fog,260,2013-10-25 13:55:00
8:15 AM,30.2,29.8,99,30.20,0.2,West,10.4,-,N/A,Fog,Light Freezing Fog,260,2013-10-25 14:15:00
8:35 AM,31.6,31.1,98,30.19,0.5,West,10.4,-,N/A,Fog,Light Freezing Fog,280,2013-10-25 14:35:00
8:55 AM,33.3,32.7,98,30.19,1.0,West,9.2,-,N/A,,Overcast,260,2013-10-25 14:55:00
9:15 AM,36.0,35.2,97,30.19,4.0,West,8.1,-,N/A,,Scattered Clouds,270,2013-10-25 15:15:00
9:35 AM,39.0,37.2,93,30.19,7.0,West,9.2,-,N/A,,Clear,270,2013-10-25 15:35:00
9:55 AM,42.1,37.6,84,30.19,10.0,West,9.2,-,N/A,,Clear,270,2013-10-25 15:55:00
10:15 AM,45.0,37.9,76,30.18,10.0,West,11.5,-,N/A,,Clear,270,2013-10-25 16:15:00
10:35 AM,47.3,38.3,71,30.17,10.0,West,10.4,-,N/A,,Clear,270,2013-10-25 16:35:00
10:55 AM,50.2,39.2,66,30.17,10.0,West,9.2,-,N/A,,Clear,280,2013-10-25 16:55:00
11:15 AM,52.9,39.9,61,30.16,10.0,West,9.2,-,N/A,,Clear,260,2013-10-25 17:15:00
11:35 AM,54.7,39.9,58,30.16,10.0,WSW,6.9,-,N/A,,Clear,250,2013-10-25 17:35:00
11:55 AM,56.1,40.3,55,30.16,10.0,WSW,5.8,-,N/A,,Clear,250,2013-10-25 17:55:00
12:15 PM,57.6,40.3,53,30.15,10.0,WSW,5.8,-,N/A,,Clear,240,2013-10-25 18:15:00
12:35 PM,59.7,40.1,48,30.15,10.0,WSW,5.8,-,N/A,,Clear,240,2013-10-25 18:35:00
12:55 PM,61.7,40.1,45,30.14,10.0,WSW,5.8,-,N/A,,Clear,250,2013-10-25 18:55:00
1:15 PM,62.8,38.8,41,30.12,10.0,Calm,Calm,-,N/A,,Clear,0,2013-10-25 19:15:00
1:35 PM,64.2,38.5,39,30.11,10.0,Calm,Calm,-,N/A,,Clear,0,2013-10-25 19:35:00
1:55 PM,65.5,37.6,36,30.11,10.0,West,4.6,-,N/A,,Clear,270,2013-10-25 19:55:00
2:15 PM,66.2,36.5,33,30.10,10.0,South,3.5,-,N/A,,Clear,190,2013-10-25 20:15:00
2:35 PM,66.7,36.1,32,30.09,10.0,South,5.8,-,N/A,,Clear,170,2013-10-25 20:35:00
2:55 PM,67.5,35.2,30,30.09,10.0,Calm,Calm,-,N/A,,Clear,0,2013-10-25 20:55:00
3:15 PM,68.2,34.2,28,30.09,10.0,Calm,Calm,-,N/A,,Clear,0,2013-10-25 21:15:00
3:35 PM,68.5,33.3,27,30.09,10.0,Calm,Calm,-,N/A,,Clear,0,2013-10-25 21:35:00
3:55 PM,68.9,32.5,26,30.08,10.0,Calm,Calm,-,N/A,,Clear,0,2013-10-25 21:55:00
4:15 PM,68.9,33.1,27,30.08,10.0,SSE,5.8,-,N/A,,Clear,150,2013-10-25 22:15:00
4:35 PM,68.5,32.5,26,30.08,10.0,ESE,5.8,-,N/A,,Clear,120,2013-10-25 22:35:00
4:55 PM,67.8,32.9,27,30.08,10.0,ESE,5.8,-,N/A,,Clear,120,2013-10-25 22:55:00
5:15 PM,65.8,34.7,32,30.08,10.0,East,3.5,-,N/A,,Clear,100,2013-10-25 23:15:00
5:35 PM,63.9,37.2,37,30.09,10.0,East,5.8,-,N/A,,Clear,80,2013-10-25 23:35:00
5:55 PM,60.4,37.4,42,30.10,10.0,East,4.6,-,N/A,,Clear,100,2013-10-25 23:55:00
6:15 PM,58.5,34.5,41,30.11,10.0,East,4.6,-,N/A,,Clear,90,2013-10-26 00:15:00
6:35 PM,59.9,33.6,37,30.11,10.0,Calm,Calm,-,N/A,,Clear,0,2013-10-26 00:35:00
6:55 PM,59.0,33.4,38,30.12,10.0,NNE,5.8,-,N/A,,Clear,20,2013-10-26 00:55:00
7:15 PM,51.4,36.5,57,30.13,10.0,North,8.1,-,N/A,,Clear,10,2013-10-26 01:15:00
7:35 PM,52.2,34.7,51,30.14,10.0,NNE,8.1,-,N/A,,Clear,20,2013-10-26 01:35:00
7:55 PM,51.1,33.3,51,30.14,10.0,North,4.6,-,N/A,,Clear,10,2013-10-26 01:55:00
8:15 PM,51.3,32.0,48,30.15,10.0,NNW,4.6,-,N/A,,Clear,330,2013-10-26 02:15:00
8:35 PM,49.5,32.0,51,30.15,10.0,NNW,5.8,-,N/A,,Clear,330,2013-10-26 02:35:00
8:55 PM,48.0,32.0,54,30.16,10.0,NNW,8.1,-,N/A,,Clear,340,2013-10-26 02:55:00
9:15 PM,49.3,33.3,54,30.16,10.0,North,12.7,-,N/A,,Clear,350,2013-10-26 03:15:00
9:35 PM,48.2,32.9,55,30.17,10.0,North,10.4,17.3,N/A,,Clear,350,2013-10-26 03:35:00
9:55 PM,47.7,32.0,55,30.18,10.0,North,6.9,-,N/A,,Clear,350,2013-10-26 03:55:00
10:15 PM,49.3,31.6,51,30.19,10.0,WNW,4.6,-,N/A,,Clear,300,2013-10-26 04:15:00
10:35 PM,43.2,32.0,65,30.20,10.0,WNW,3.5,-,N/A,,Clear,290,2013-10-26 04:35:00
10:55 PM,40.6,32.0,71,30.20,10.0,West,8.1,-,N/A,,Clear,280,2013-10-26 04:55:00
11:15 PM,41.9,32.0,68,30.21,10.0,WNW,9.2,-,N/A,,Clear,300,2013-10-26 05:15:00
11:35 PM,42.8,32.0,66,30.21,10.0,NW,11.5,-,N/A,,Clear,310,2013-10-26 05:35:00
11:55 PM,42.8,32.0,66,30.22,10.0,NW,9.2,-,N/A,,Clear,310,2013-10-26 05:55:00